Time;durP1;ratioP1;P1;durP2;ratioP2;P2;SDS_P1;SDS_P2;PMS_P1;PMS_P2;Temp;Humidity;BMP_temperature;BMP_pressure;BME280_temperature;BME280_humidity;BME280_pressure;Samples;Min_cycle;Max_cycle;Signal;HPM_P1;HPM_P2
2022/04/08 00:02:13;;;;;;;1.70;0.47;;;5.60;99.90;;;;;;5060455;28;20613;-46
2022/04/08 00:04:51;;;;;;;1.27;0.57;;;5.60;99.90;;;;;;5060128;28;20198;-43
2022/04/08 00:07:18;;;;;;;2.97;0.60;;;5.60;99.90;;;;;;5063188;28;20214;-49
2022/04/08 00:09:46;;;;;;;6.07;0.80;;;5.60;99.90;;;;;;5058394;28;20210;-47
2022/04/08 00:12:13;;;;;;;5.30;0.93;;;5.50;99.90;;;;;;5050343;28;20199;-43
2022/04/08 00:14:40;;;;;;;3.47;0.63;;;5.50;99.90;;;;;;5064536;28;20240;-44
2022/04/08 00:17:07;;;;;;;4.57;0.50;;;5.50;99.90;;;;;;5063520;28;20217;-43
2022/04/08 00:19:36;;;;;;;2.47;0.60;;;5.40;99.90;;;;;;5051679;28;20202;-45
2022/04/08 00:22:05;;;;;;;1.70;0.50;;;5.50;99.90;;;;;;5061809;28;20196;-46
2022/04/08 00:24:31;;;;;;;5.63;0.57;;;5.40;99.90;;;;;;5058646;28;20203;-47
2022/04/08 00:26:59;;;;;;;4.50;0.70;;;5.40;99.90;;;;;;5061707;28;20224;-43
2022/04/08 00:29:26;;;;;;;2.87;0.70;;;5.40;99.90;;;;;;5066316;28;20576;-45
2022/04/08 00:31:57;;;;;;;3.13;0.60;;;5.40;99.90;;;;;;5061654;28;20190;-43
2022/04/08 00:34:25;;;;;;;5.17;0.73;;;5.40;99.90;;;;;;5054495;28;20210;-48
2022/04/08 00:36:53;;;;;;;3.73;1.10;;;5.40;99.90;;;;;;5060297;28;20293;-43
2022/04/08 00:39:20;;;;;;;9.13;1.40;;;5.40;99.90;;;;;;5059447;28;20569;-44
2022/04/08 00:41:47;;;;;;;2.63;0.67;;;5.30;99.90;;;;;;5058936;28;20198;-46
2022/04/08 00:44:15;;;;;;;3.40;1.07;;;5.30;99.90;;;;;;5064394;28;20205;-44
2022/04/08 00:46:43;;;;;;;2.40;0.90;;;5.30;99.90;;;;;;5059282;28;20269;-48
2022/04/08 00:49:10;;;;;;;5.40;0.83;;;5.30;99.90;;;;;;5047766;28;20229;-43
2022/04/08 00:51:38;;;;;;;5.77;0.97;;;5.30;99.90;;;;;;5063700;28;20679;-45
2022/04/08 00:54:06;;;;;;;2.67;0.90;;;5.30;99.90;;;;;;5060043;28;20908;-43
2022/04/08 00:56:34;;;;;;;5.13;0.87;;;5.30;99.90;;;;;;5058642;28;20549;-48
2022/04/08 00:59:01;;;;;;;4.10;1.00;;;5.30;99.90;;;;;;5062400;28;20190;-43
2022/04/08 01:01:29;;;;;;;2.67;0.80;;;5.30;99.90;;;;;;5064884;28;20221;-45
2022/04/08 01:03:57;;;;;;;5.97;1.10;;;5.30;99.90;;;;;;5047882;28;20213;-45
2022/04/08 01:06:26;;;;;;;5.80;0.70;;;5.30;99.90;;;;;;5054892;28;20202;-45
2022/04/08 01:08:54;;;;;;;4.17;1.23;;;5.30;99.90;;;;;;5062554;28;20213;-44
2022/04/08 01:11:20;;;;;;;11.73;1.47;;;5.20;99.90;;;;;;5057826;28;20252;-45
2022/04/08 01:13:47;;;;;;;4.30;0.90;;;5.20;99.90;;;;;;5062641;28;20199;-43
2022/04/08 01:16:13;;;;;;;3.53;0.90;;;5.20;99.90;;;;;;5063872;28;20206;-44
2022/04/08 01:18:42;;;;;;;2.70;0.90;;;5.20;99.90;;;;;;5055444;28;20221;-44
2022/04/08 01:21:09;;;;;;;10.43;1.03;;;5.20;99.90;;;;;;5056449;28;20206;-44
2022/04/08 01:23:36;;;;;;;6.93;0.93;;;5.20;99.90;;;;;;5060060;28;20191;-47
2022/04/08 01:26:05;;;;;;;13.27;1.30;;;5.20;99.90;;;;;;5061830;28;20213;-44
2022/04/08 01:28:32;;;;;;;6.77;1.50;;;5.20;99.90;;;;;;5059132;28;20836;-46
2022/04/08 01:31:00;;;;;;;4.97;1.07;;;5.20;99.90;;;;;;5064640;28;20195;-43
2022/04/08 01:33:26;;;;;;;4.83;1.10;;;5.30;99.90;;;;;;5061695;28;20198;-47
2022/04/08 01:35:53;;;;;;;7.30;1.00;;;5.20;99.90;;;;;;5048469;28;20222;-43
2022/04/08 01:38:20;;;;;;;5.37;1.37;;;5.20;99.90;;;;;;5062572;28;20222;-44
2022/04/08 01:40:47;;;;;;;5.43;1.10;;;5.20;99.90;;;;;;5069113;28;20194;-43
2022/04/08 01:43:15;;;;;;;4.53;1.33;;;5.20;99.90;;;;;;5058558;28;20210;-44
2022/04/08 01:45:42;;;;;;;4.13;1.20;;;5.20;99.90;;;;;;5061437;28;20842;-43
2022/04/08 01:48:09;;;;;;;5.50;1.10;;;5.20;99.90;;;;;;5059595;28;20234;-45
2022/04/08 01:50:37;;;;;;;7.57;1.30;;;5.30;99.90;;;;;;5060281;28;20296;-43
2022/04/08 01:53:03;;;;;;;7.03;0.87;;;5.30;99.90;;;;;;5042670;28;20660;-47
2022/04/08 01:55:30;;;;;;;4.90;1.00;;;5.30;99.90;;;;;;5054574;28;20202;-45
2022/04/08 01:57:57;;;;;;;7.50;1.10;;;5.30;99.90;;;;;;5057916;28;20306;-46
2022/04/08 02:00:25;;;;;;;2.77;0.80;;;5.30;99.90;;;;;;5061780;28;20207;-46
2022/04/08 02:02:52;;;;;;;3.63;1.00;;;5.30;99.90;;;;;;5063232;28;20195;-43
2022/04/08 02:05:19;;;;;;;3.97;1.10;;;5.30;99.90;;;;;;5062020;28;20240;-47
2022/04/08 02:07:46;;;;;;;2.23;0.77;;;5.30;99.90;;;;;;5048043;28;20223;-44
2022/04/08 02:10:13;;;;;;;3.50;1.10;;;5.30;99.90;;;;;;5058307;28;20580;-46
2022/04/08 02:12:40;;;;;;;7.80;1.00;;;5.30;99.90;;;;;;5054913;28;20334;-46
2022/04/08 02:15:08;;;;;;;7.50;1.30;;;5.30;99.90;;;;;;5064035;28;20310;-44
2022/04/08 02:17:36;;;;;;;1.97;0.63;;;5.30;99.90;;;;;;5058925;28;20859;-43
2022/04/08 02:20:04;;;;;;;6.87;0.90;;;5.20;99.90;;;;;;5064131;28;20199;-42
2022/04/08 02:22:34;;;;;;;4.90;1.10;;;5.10;99.90;;;;;;5046801;28;20191;-45
2022/04/08 02:25:01;;;;;;;5.03;1.03;;;5.10;99.90;;;;;;5062707;28;20205;-43
2022/04/08 02:27:28;;;;;;;7.20;1.40;;;5.00;99.90;;;;;;5059485;28;20218;-44
2022/04/08 02:29:58;;;;;;;4.87;1.37;;;5.00;99.90;;;;;;5057683;28;20229;-43
2022/04/08 02:32:25;;;;;;;2.90;0.83;;;4.90;99.90;;;;;;5060975;28;20710;-44
2022/04/08 02:34:54;;;;;;;6.17;1.30;;;4.90;99.90;;;;;;5062483;28;20206;-43
2022/04/08 02:37:21;;;;;;;6.40;1.10;;;4.90;99.90;;;;;;5060553;28;20303;-44
2022/04/08 02:39:48;;;;;;;4.80;1.30;;;4.90;99.90;;;;;;5047890;28;20194;-43
2022/04/08 02:42:15;;;;;;;4.87;1.10;;;4.90;99.90;;;;;;5062964;28;20195;-45
2022/04/08 02:44:44;;;;;;;5.43;0.87;;;4.80;99.90;;;;;;5054454;28;20202;-43
2022/04/08 02:47:11;;;;;;;6.30;1.07;;;4.80;99.90;;;;;;5062521;28;20309;-44
2022/04/08 02:49:38;;;;;;;4.07;1.00;;;4.80;99.90;;;;;;5059727;28;20257;-43
2022/04/08 02:52:07;;;;;;;8.53;1.30;;;4.90;99.90;;;;;;5062597;28;20203;-43
2022/04/08 02:54:34;;;;;;;8.57;1.87;;;4.90;99.90;;;;;;5045481;28;20214;-43
2022/04/08 02:57:01;;;;;;;6.27;1.30;;;4.90;99.90;;;;;;5062448;28;20211;-44
2022/04/08 02:59:27;;;;;;;4.97;1.23;;;4.90;99.90;;;;;;5055399;28;20213;-45
2022/04/08 03:01:54;;;;;;;9.83;1.87;;;4.90;99.90;;;;;;5061629;28;20210;-42
2022/04/08 03:04:21;;;;;;;6.77;1.20;;;4.90;99.90;;;;;;5061167;28;20191;-48
2022/04/08 03:06:48;;;;;;;10.63;1.60;;;4.90;99.90;;;;;;5060025;28;20957;-43
2022/04/08 03:09:16;;;;;;;8.70;1.27;;;5.00;99.90;;;;;;5053286;28;20209;-44
2022/04/08 03:11:43;;;;;;;10.10;1.77;;;5.00;99.90;;;;;;5047976;28;20228;-43
2022/04/08 03:14:09;;;;;;;6.70;1.40;;;5.00;99.90;;;;;;5062988;28;20203;-42
2022/04/08 03:16:36;;;;;;;6.33;1.63;;;5.10;99.90;;;;;;5054158;28;20199;-42
2022/04/08 03:19:03;;;;;;;7.53;1.30;;;5.10;99.90;;;;;;5062956;28;20214;-45
2022/04/08 03:21:30;;;;;;;13.57;2.40;;;5.10;99.90;;;;;;5059255;28;20201;-48
2022/04/08 03:23:57;;;;;;;11.50;1.83;;;5.20;99.90;;;;;;5062547;28;20203;-45
2022/04/08 03:26:25;;;;;;;15.07;1.90;;;5.10;99.90;;;;;;5046698;28;20206;-44
2022/04/08 03:28:52;;;;;;;7.53;1.67;;;5.20;99.90;;;;;;5062012;28;20197;-45
2022/04/08 03:31:19;;;;;;;7.13;1.40;;;5.10;99.90;;;;;;5055187;28;20222;-46
2022/04/08 03:33:46;;;;;;;6.20;1.40;;;5.20;99.90;;;;;;5052025;28;20234;-44
2022/04/08 03:36:13;;;;;;;9.20;1.63;;;5.20;99.90;;;;;;5055478;28;20199;-45
2022/04/08 03:38:40;;;;;;;6.03;1.43;;;5.10;99.90;;;;;;5050615;28;20301;-43
2022/04/08 03:41:06;;;;;;;7.17;1.50;;;5.10;99.90;;;;;;5054480;28;20274;-47
2022/04/08 03:43:34;;;;;;;8.13;1.57;;;5.10;99.90;;;;;;5053924;28;20194;-45
2022/04/08 03:46:01;;;;;;;12.90;1.63;;;5.10;99.90;;;;;;5061009;28;20202;-45
2022/04/08 03:48:28;;;;;;;5.43;2.13;;;5.10;99.90;;;;;;5055177;28;20225;-49
2022/04/08 03:50:55;;;;;;;7.20;1.70;;;5.10;99.90;;;;;;5058326;28;20557;-43
2022/04/08 03:53:23;;;;;;;10.47;1.80;;;5.20;99.90;;;;;;5052204;28;20198;-44
2022/04/08 03:55:50;;;;;;;11.33;1.90;;;5.20;99.90;;;;;;5046175;28;20215;-48
2022/04/08 03:58:17;;;;;;;13.33;2.30;;;5.20;99.90;;;;;;5039719;28;20226;-50
2022/04/08 04:00:47;;;;;;;13.17;1.80;;;5.20;99.90;;;;;;5051700;28;20285;-45
2022/04/08 04:03:13;;;;;;;23.47;2.73;;;5.20;99.90;;;;;;5044107;28;20215;-46
2022/04/08 04:05:40;;;;;;;8.27;1.43;;;5.20;99.90;;;;;;5051412;28;20691;-43
2022/04/08 04:08:09;;;;;;;9.90;2.30;;;5.20;99.90;;;;;;5052006;28;20222;-44
2022/04/08 04:10:37;;;;;;;11.67;2.63;;;5.20;99.90;;;;;;5048427;28;20213;-43
2022/04/08 04:13:04;;;;;;;6.33;1.30;;;5.20;99.90;;;;;;5042382;28;20211;-43
2022/04/08 04:15:31;;;;;;;13.20;2.33;;;5.20;99.90;;;;;;5059612;28;20282;-45
2022/04/08 04:17:59;;;;;;;10.70;2.43;;;5.20;99.90;;;;;;5056303;28;20230;-45
2022/04/08 04:20:26;;;;;;;9.43;1.93;;;5.20;99.90;;;;;;5061818;28;20207;-42
2022/04/08 04:22:53;;;;;;;10.23;2.13;;;5.20;99.90;;;;;;5053305;28;20205;-43
2022/04/08 04:25:23;;;;;;;7.67;2.00;;;5.20;99.90;;;;;;5055637;28;20234;-44
2022/04/08 04:27:49;;;;;;;14.70;2.23;;;5.20;99.90;;;;;;5044158;28;20219;-45
2022/04/08 04:30:16;;;;;;;8.33;2.23;;;5.20;99.90;;;;;;5062666;28;20211;-48
2022/04/08 04:32:43;;;;;;;10.67;2.07;;;5.20;99.90;;;;;;5044935;28;20209;-48
2022/04/08 04:35:11;;;;;;;11.47;2.20;;;5.20;99.90;;;;;;5064526;28;20217;-44
2022/04/08 04:37:38;;;;;;;7.47;1.90;;;5.20;99.90;;;;;;5059808;28;20219;-44
2022/04/08 04:40:08;;;;;;;8.53;1.80;;;5.20;99.90;;;;;;5060799;28;20249;-43
2022/04/08 04:42:35;;;;;;;14.77;2.03;;;5.20;99.90;;;;;;5042016;28;20207;-42
2022/04/08 04:45:01;;;;;;;9.17;1.73;;;5.10;99.90;;;;;;5064202;28;20200;-44
2022/04/08 04:47:28;;;;;;;7.57;1.77;;;5.10;99.90;;;;;;5061617;28;20254;-42
2022/04/08 04:49:55;;;;;;;5.70;1.47;;;5.10;99.90;;;;;;5059114;28;20225;-45
2022/04/08 04:52:23;;;;;;;6.47;1.47;;;5.10;99.90;;;;;;5062628;28;20191;-44
2022/04/08 04:54:49;;;;;;;7.53;1.67;;;5.00;99.90;;;;;;5056298;28;20244;-46
2022/04/08 04:57:17;;;;;;;12.90;1.30;;;5.00;99.90;;;;;;5053935;28;20233;-43
2022/04/08 04:59:44;;;;;;;7.70;1.50;;;5.00;99.90;;;;;;5055058;28;20321;-44
2022/04/08 05:02:10;;;;;;;8.37;1.63;;;4.80;99.90;;;;;;5064318;28;20215;-43
2022/04/08 05:04:37;;;;;;;7.97;1.60;;;4.70;99.90;;;;;;5055891;28;20206;-44
2022/04/08 05:07:04;;;;;;;8.30;1.60;;;4.70;99.90;;;;;;5062251;28;20222;-44
2022/04/08 05:09:33;;;;;;;6.43;1.23;;;4.60;99.90;;;;;;5061737;28;20202;-43
2022/04/08 05:12:00;;;;;;;5.80;0.93;;;4.60;99.90;;;;;;5063207;28;20959;-43
2022/04/08 05:14:27;;;;;;;6.80;1.40;;;4.50;99.90;;;;;;5049938;28;20207;-42
2022/04/08 05:16:55;;;;;;;8.80;1.70;;;4.50;99.90;;;;;;5061323;28;20207;-46
2022/04/08 05:19:22;;;;;;;10.13;1.90;;;4.50;99.90;;;;;;5057932;28;20560;-43
2022/04/08 05:21:49;;;;;;;6.37;2.10;;;4.50;99.90;;;;;;5057469;28;20194;-44
2022/04/08 05:24:16;;;;;;;11.23;1.50;;;4.40;99.90;;;;;;5031527;28;20222;-45
2022/04/08 05:26:44;;;;;;;13.47;2.20;;;4.40;99.90;;;;;;5058729;28;20897;-45
2022/04/08 05:29:12;;;;;;;10.93;1.90;;;4.40;99.90;;;;;;5043111;28;20215;-44
2022/04/08 05:31:39;;;;;;;5.53;1.40;;;4.40;99.90;;;;;;5060862;28;20241;-44
2022/04/08 05:34:06;;;;;;;5.90;1.23;;;4.40;99.90;;;;;;5062579;28;20206;-46
2022/04/08 05:36:33;;;;;;;6.17;1.60;;;4.40;99.90;;;;;;5059203;28;20282;-42
2022/04/08 05:39:00;;;;;;;6.57;1.47;;;4.50;99.90;;;;;;5054351;28;20218;-45
2022/04/08 05:41:27;;;;;;;5.57;1.63;;;4.50;99.90;;;;;;5060482;28;20205;-43
2022/04/08 05:43:55;;;;;;;10.37;1.90;;;4.60;99.90;;;;;;5058841;28;20304;-41
2022/04/08 05:46:22;;;;;;;7.07;1.53;;;4.60;99.90;;;;;;5045851;28;20570;-41
2022/04/08 05:48:49;;;;;;;14.90;2.23;;;4.60;99.90;;;;;;5060545;28;20210;-44
2022/04/08 05:51:15;;;;;;;11.87;1.70;;;4.60;99.90;;;;;;5057302;28;20218;-43
2022/04/08 05:53:42;;;;;;;9.00;1.57;;;4.60;99.90;;;;;;5058023;28;20270;-43
2022/04/08 05:56:09;;;;;;;16.23;2.00;;;4.50;99.90;;;;;;5051050;28;20218;-47
2022/04/08 05:58:35;;;;;;;10.23;1.60;;;4.30;99.90;;;;;;5054801;28;20738;-42
2022/04/08 06:01:04;;;;;;;15.00;2.20;;;4.20;99.90;;;;;;5045165;28;20211;-45
2022/04/08 06:03:30;;;;;;;7.93;2.07;;;4.10;99.90;;;;;;5060662;28;20194;-42
2022/04/08 06:05:57;;;;;;;8.80;1.67;;;4.10;99.90;;;;;;5052566;28;20711;-42
2022/04/08 06:08:24;;;;;;;8.23;2.00;;;4.10;99.90;;;;;;5060823;28;20703;-41
2022/04/08 06:10:52;;;;;;;12.37;2.07;;;4.20;99.90;;;;;;5064586;28;20214;-44
2022/04/08 06:13:24;;;;;;;16.00;2.30;;;4.20;99.90;;;;;;5061106;28;20206;-44
2022/04/08 06:15:51;;;;;;;12.00;2.53;;;4.30;99.90;;;;;;5043201;28;21198;-42
2022/04/08 06:18:20;;;;;;;10.43;2.23;;;4.30;99.90;;;;;;5055044;28;20241;-44
2022/04/08 06:20:47;;;;;;;6.80;1.77;;;4.40;99.90;;;;;;5052464;28;20194;-47
2022/04/08 06:23:13;;;;;;;12.37;2.10;;;4.40;99.90;;;;;;5057073;28;20206;-45
2022/04/08 06:25:40;;;;;;;6.73;1.30;;;4.40;99.90;;;;;;5057476;28;20187;-42
2022/04/08 06:28:08;;;;;;;7.73;2.10;;;4.50;99.90;;;;;;5050908;28;20233;-41
2022/04/08 06:30:36;;;;;;;10.20;2.10;;;4.50;99.90;;;;;;5050654;28;20218;-44
2022/04/08 06:33:03;;;;;;;12.70;2.07;;;4.50;99.90;;;;;;5047935;28;20210;-42
2022/04/08 06:35:32;;;;;;;8.23;1.40;;;4.50;99.90;;;;;;5051017;28;20923;-42
2022/04/08 06:37:59;;;;;;;7.17;1.10;;;4.50;99.90;;;;;;5056097;28;20215;-44
2022/04/08 06:40:27;;;;;;;8.13;1.53;;;4.50;99.90;;;;;;5058774;28;20272;-43
2022/04/08 06:42:55;;;;;;;5.37;1.57;;;4.60;99.90;;;;;;5060749;28;20203;-43
2022/04/08 06:45:24;;;;;;;7.67;1.40;;;4.70;99.90;;;;;;5058463;28;20199;-46
2022/04/08 06:47:51;;;;;;;15.20;1.80;;;4.80;99.90;;;;;;5048069;28;20242;-42
2022/04/08 06:50:18;;;;;;;7.03;1.90;;;4.80;99.90;;;;;;5042942;28;20241;-42
2022/04/08 06:52:47;;;;;;;10.60;1.77;;;4.90;99.90;;;;;;5053690;28;20226;-42
2022/04/08 06:55:14;;;;;;;13.73;1.77;;;5.00;99.90;;;;;;5051468;28;20229;-42
2022/04/08 06:57:42;;;;;;;11.33;1.87;;;5.00;99.90;;;;;;5057138;28;20214;-44
2022/04/08 07:00:11;;;;;;;5.77;1.33;;;5.10;99.90;;;;;;5055986;28;20945;-42
2022/04/08 07:02:38;;;;;;;13.30;1.83;;;5.20;99.90;;;;;;5054267;28;20256;-46
2022/04/08 07:05:06;;;;;;;8.60;1.70;;;5.40;99.90;;;;;;5047688;28;20217;-44
2022/04/08 07:07:34;;;;;;;5.70;1.40;;;5.40;99.90;;;;;;5060560;28;20275;-42
2022/04/08 07:10:02;;;;;;;6.20;1.57;;;5.50;99.90;;;;;;5046352;28;20210;-43
2022/04/08 07:12:29;;;;;;;4.63;1.10;;;5.60;99.90;;;;;;5058328;28;20707;-43
2022/04/08 07:14:56;;;;;;;7.13;1.87;;;5.60;99.90;;;;;;5047409;28;20684;-43
2022/04/08 07:17:28;;;;;;;2.80;0.93;;;5.60;99.90;;;;;;5060157;28;20694;-43
2022/04/08 07:19:56;;;;;;;4.97;1.53;;;5.70;99.90;;;;;;5039468;28;20198;-45
2022/04/08 07:22:23;;;;;;;6.63;1.70;;;5.70;99.90;;;;;;5061725;28;20664;-45
2022/04/08 07:24:50;;;;;;;7.57;1.13;;;5.80;99.90;;;;;;5049627;28;20198;-44
2022/04/08 07:27:19;;;;;;;5.23;2.20;;;5.80;99.90;;;;;;5059441;28;20229;-43
2022/04/08 07:29:47;;;;;;;11.07;1.50;;;5.90;99.90;;;;;;5058869;28;20270;-43
2022/04/08 07:32:20;;;;;;;7.17;1.80;;;5.90;99.90;;;;;;5055508;28;20222;-45
2022/04/08 07:34:48;;;;;;;5.37;1.70;;;6.00;99.90;;;;;;5048141;28;20606;-44
2022/04/08 07:37:15;;;;;;;7.83;2.37;;;6.20;99.90;;;;;;5053203;28;20218;-42
2022/04/08 07:39:42;;;;;;;6.50;1.70;;;6.20;99.90;;;;;;5054384;28;20945;-43
2022/04/08 07:42:10;;;;;;;5.40;1.50;;;6.20;99.90;;;;;;5054644;28;20281;-44
2022/04/08 07:44:38;;;;;;;6.50;1.70;;;6.20;99.90;;;;;;5062432;28;20199;-44
2022/04/08 07:47:06;;;;;;;2.13;0.87;;;6.20;99.90;;;;;;5056859;28;20297;-42
2022/04/08 07:49:32;;;;;;;2.13;0.63;;;6.20;99.90;;;;;;5041298;28;20202;-43
2022/04/08 07:51:59;;;;;;;4.53;1.43;;;6.10;99.90;;;;;;5057467;28;20218;-42
2022/04/08 07:54:26;;;;;;;2.60;0.80;;;6.10;99.90;;;;;;5056355;28;20206;-44
2022/04/08 07:56:53;;;;;;;2.13;0.83;;;6.10;99.90;;;;;;5046258;28;20227;-45
2022/04/08 07:59:20;;;;;;;5.53;1.20;;;6.10;99.90;;;;;;5060202;28;20199;-43
2022/04/08 08:01:48;;;;;;;7.70;1.40;;;6.20;99.90;;;;;;5059257;28;20205;-45
2022/04/08 08:04:15;;;;;;;7.90;2.27;;;6.30;99.90;;;;;;5048954;28;20859;-43
2022/04/08 08:06:42;;;;;;;4.40;1.10;;;6.30;99.90;;;;;;5063749;28;20537;-45
2022/04/08 08:09:08;;;;;;;6.10;1.90;;;6.40;99.90;;;;;;5057166;28;20287;-43
2022/04/08 08:11:35;;;;;;;6.40;1.00;;;6.40;99.90;;;;;;5055281;28;20699;-43
2022/04/08 08:14:03;;;;;;;4.63;0.77;;;6.10;99.90;;;;;;5056972;28;20187;-43
2022/04/08 08:16:30;;;;;;;3.33;1.17;;;6.00;99.90;;;;;;5064429;28;20203;-46
2022/04/08 08:18:58;;;;;;;3.83;0.97;;;6.00;99.90;;;;;;5060002;28;20887;-43
2022/04/08 08:21:25;;;;;;;2.07;0.90;;;6.00;99.90;;;;;;5052405;28;20211;-43
2022/04/08 08:23:53;;;;;;;5.53;1.20;;;6.00;99.90;;;;;;5061569;28;20213;-44
2022/04/08 08:26:19;;;;;;;6.80;1.77;;;6.10;99.90;;;;;;5057541;28;20214;-47
2022/04/08 08:28:46;;;;;;;3.27;0.90;;;6.20;99.90;;;;;;5061954;28;20597;-48
2022/04/08 08:31:15;;;;;;;6.27;1.27;;;6.30;99.90;;;;;;5060338;28;20218;-44
2022/04/08 08:33:43;;;;;;;4.77;0.90;;;6.20;99.90;;;;;;5064257;28;20307;-44
2022/04/08 08:36:11;;;;;;;3.13;1.00;;;6.20;99.90;;;;;;5049170;28;20268;-43
2022/04/08 08:38:38;;;;;;;3.97;1.10;;;6.10;99.90;;;;;;5068163;28;20214;-47
2022/04/08 08:41:07;;;;;;;4.10;1.40;;;6.20;99.90;;;;;;5055594;28;20210;-43
2022/04/08 08:43:34;;;;;;;3.17;1.00;;;6.20;99.90;;;;;;5065964;28;20194;-45
2022/04/08 08:46:03;;;;;;;2.47;0.80;;;6.30;99.90;;;;;;5055429;28;20380;-47
2022/04/08 08:48:34;;;;;;;5.93;1.13;;;6.50;99.90;;;;;;5059062;28;20223;-44
2022/04/08 08:51:03;;;;;;;5.50;1.40;;;6.60;99.90;;;;;;5045777;28;20194;-43
2022/04/08 08:53:32;;;;;;;7.63;1.20;;;6.70;99.90;;;;;;5065039;28;20205;-43
2022/04/08 08:55:59;;;;;;;3.67;0.80;;;6.80;99.90;;;;;;5058810;28;20813;-42
2022/04/08 08:58:26;;;;;;;4.70;1.10;;;6.80;99.90;;;;;;5059091;28;20319;-44
2022/04/08 09:00:53;;;;;;;3.60;1.20;;;6.70;99.90;;;;;;5053266;28;20218;-44
2022/04/08 09:03:19;;;;;;;3.60;1.20;;;6.80;99.90;;;;;;5065284;28;20197;-44
2022/04/08 09:05:47;;;;;;;9.20;2.03;;;6.90;99.90;;;;;;5050284;28;20201;-45
2022/04/08 09:08:14;;;;;;;6.83;1.30;;;7.00;99.90;;;;;;5055984;28;20895;-43
2022/04/08 09:10:45;;;;;;;5.40;1.20;;;7.10;99.90;;;;;;5061693;28;20205;-48
2022/04/08 09:13:17;;;;;;;3.10;1.20;;;7.20;99.90;;;;;;5056451;28;20218;-47
2022/04/08 09:15:53;;;;;;;7.00;1.00;;;7.20;99.90;;;;;;5055446;28;20213;-43
2022/04/08 09:18:20;;;;;;;3.47;1.10;;;7.20;99.90;;;;;;5063703;28;20233;-48
2022/04/08 09:20:49;;;;;;;2.97;1.23;;;7.30;99.90;;;;;;5054054;28;20202;-47
2022/04/08 09:23:18;;;;;;;4.47;1.20;;;7.20;99.90;;;;;;5060564;28;20229;-45
2022/04/08 09:25:47;;;;;;;4.63;1.10;;;7.20;99.90;;;;;;5058280;28;20213;-46
2022/04/08 09:28:16;;;;;;;3.70;1.27;;;7.40;99.90;;;;;;5054029;28;20223;-44
2022/04/08 09:30:48;;;;;;;3.60;1.67;;;7.40;99.90;;;;;;5062312;28;20758;-44
2022/04/08 09:33:18;;;;;;;7.17;1.23;;;7.40;99.90;;;;;;5052177;28;20440;-43
2022/04/08 09:35:49;;;;;;;2.20;0.63;;;7.30;99.90;;;;;;5061763;28;20723;-47
2022/04/08 09:38:19;;;;;;;3.33;0.80;;;7.30;99.90;;;;;;5042694;28;21991;-43
2022/04/08 09:40:48;;;;;;;3.47;1.60;;;7.40;99.90;;;;;;5061750;28;20194;-44
2022/04/08 09:43:16;;;;;;;4.07;1.13;;;7.60;99.90;;;;;;5064603;28;20189;-44
2022/04/08 09:45:44;;;;;;;4.10;0.80;;;7.70;99.90;;;;;;5062236;28;20532;-46
2022/04/08 09:48:11;;;;;;;2.50;0.90;;;7.70;99.90;;;;;;5051390;28;20320;-43
2022/04/08 09:50:40;;;;;;;3.60;0.97;;;7.70;99.90;;;;;;5063032;28;20198;-44
2022/04/08 09:53:07;;;;;;;3.27;0.90;;;7.60;99.90;;;;;;5040182;28;20868;-43
2022/04/08 09:55:36;;;;;;;3.03;0.90;;;7.60;99.90;;;;;;5058115;28;20245;-48
2022/04/08 09:58:08;;;;;;;1.97;0.63;;;7.70;99.90;;;;;;5056424;28;20215;-47
2022/04/08 10:00:36;;;;;;;3.40;0.93;;;7.70;99.90;;;;;;5056889;28;20739;-43
2022/04/08 10:03:03;;;;;;;4.20;1.00;;;7.80;99.90;;;;;;5054280;28;20195;-46
2022/04/08 10:05:31;;;;;;;1.87;0.60;;;7.90;99.90;;;;;;5062640;28;20659;-44
2022/04/08 10:07:58;;;;;;;3.33;0.80;;;8.00;99.90;;;;;;5044374;28;20228;-45
2022/04/08 10:10:30;;;;;;;1.73;0.90;;;8.20;99.90;;;;;;5055697;28;20198;-47
2022/04/08 10:13:25;;;;;;;4.50;0.70;;;8.30;99.90;;;;;;5054162;28;20213;-43
2022/04/08 10:16:08;;;;;;;2.53;0.47;;;8.40;99.90;;;;;;5045881;28;20205;-44
2022/04/08 10:18:36;;;;;;;5.90;0.83;;;8.50;99.90;;;;;;5057824;28;20607;-46
2022/04/08 10:21:03;;;;;;;4.30;1.13;;;8.50;99.90;;;;;;5052713;28;20206;-46
2022/04/08 10:23:38;;;;;;;6.50;1.13;;;8.50;99.90;;;;;;5063659;28;20206;-47
2022/04/08 10:26:07;;;;;;;0.67;0.50;;;8.70;99.90;;;;;;5046768;28;20206;-43
2022/04/08 10:28:38;;;;;;;4.40;0.60;;;8.80;99.90;;;;;;5060104;28;20231;-49
2022/04/08 10:31:20;;;;;;;2.07;0.50;;;8.90;99.90;;;;;;5054855;28;20206;-44
2022/04/08 10:33:49;;;;;;;1.57;0.60;;;8.70;99.90;;;;;;5056122;28;20224;-47
2022/04/08 10:36:16;;;;;;;3.27;0.80;;;8.60;99.90;;;;;;5059138;28;20310;-43
2022/04/08 10:38:43;;;;;;;1.37;0.67;;;8.40;99.90;;;;;;5061748;28;20214;-50
2022/04/08 10:41:11;;;;;;;5.37;0.80;;;8.30;99.90;;;;;;5044231;28;20194;-46
2022/04/08 10:43:48;;;;;;;1.97;0.70;;;8.40;99.90;;;;;;5061123;28;20242;-46
2022/04/08 10:46:28;;;;;;;0.93;0.80;;;8.50;99.90;;;;;;5053194;28;20202;-47
2022/04/08 10:48:56;;;;;;;2.13;0.80;;;8.50;99.90;;;;;;5053840;28;20663;-47
2022/04/08 10:51:23;;;;;;;2.60;0.53;;;8.50;99.90;;;;;;5057211;28;20257;-49
2022/04/08 10:53:51;;;;;;;3.10;0.80;;;8.50;99.90;;;;;;5059806;28;20222;-43
2022/04/08 10:56:18;;;;;;;5.70;0.77;;;8.50;99.90;;;;;;5040210;28;20213;-44
2022/04/08 10:58:48;;;;;;;2.47;0.80;;;8.50;99.90;;;;;;5060178;28;20218;-45
2022/04/08 11:01:19;;;;;;;1.27;0.60;;;8.50;99.90;;;;;;5054653;28;20336;-42
2022/04/08 11:03:53;;;;;;;0.83;0.40;;;8.60;99.90;;;;;;5055359;28;20205;-45
2022/04/08 11:06:22;;;;;;;0.50;0.50;;;8.80;99.90;;;;;;5057408;28;20209;-46
2022/04/08 11:08:49;;;;;;;2.33;0.70;;;8.90;99.90;;;;;;5063138;28;20222;-45
2022/04/08 11:11:16;;;;;;;3.70;0.77;;;9.10;99.90;;;;;;5046201;28;20198;-47
2022/04/08 11:13:43;;;;;;;0.83;0.60;;;9.00;99.90;;;;;;5060007;28;20215;-44
2022/04/08 11:16:11;;;;;;;6.27;0.93;;;9.10;99.90;;;;;;5051796;28;20218;-45
2022/04/08 11:18:48;;;;;;;1.50;0.80;;;9.20;99.90;;;;;;5054810;28;20268;-48
2022/04/08 11:21:17;;;;;;;2.37;1.50;;;9.20;99.90;;;;;;5054599;28;20202;-45
2022/04/08 11:23:44;;;;;;;2.57;0.80;;;9.30;99.90;;;;;;5059282;28;20510;-45
2022/04/08 11:26:12;;;;;;;1.23;0.77;;;9.90;99.90;;;;;;5042725;28;21084;-47
2022/04/08 11:28:38;;;;;;;2.87;0.97;;;9.30;99.90;;;;;;5061311;28;20211;-47
2022/04/08 11:31:05;;;;;;;3.70;1.00;;;9.30;99.90;;;;;;5054412;28;20533;-45
2022/04/08 11:33:34;;;;;;;3.87;0.97;;;9.40;99.90;;;;;;5056867;28;20233;-50
2022/04/08 11:36:03;;;;;;;5.67;1.10;;;9.40;99.90;;;;;;5051147;28;20970;-44
2022/04/08 11:38:32;;;;;;;1.30;0.80;;;9.50;99.90;;;;;;5059881;28;20217;-45
2022/04/08 11:41:00;;;;;;;4.20;0.80;;;9.60;99.90;;;;;;5057339;28;20256;-44
2022/04/08 11:43:26;;;;;;;3.43;0.93;;;9.60;99.90;;;;;;5047619;28;20352;-47
2022/04/08 11:45:53;;;;;;;2.13;0.60;;;9.60;99.90;;;;;;5058510;28;20207;-43
2022/04/08 11:48:23;;;;;;;2.77;0.73;;;9.50;99.90;;;;;;5049529;28;20232;-43
2022/04/08 11:50:52;;;;;;;3.17;0.73;;;9.50;99.90;;;;;;5055455;28;20670;-48
2022/04/08 11:53:21;;;;;;;0.40;0.40;;;9.60;99.90;;;;;;5050694;28;20217;-47
2022/04/08 11:55:56;;;;;;;3.33;0.70;;;9.80;99.90;;;;;;5049272;28;20203;-46
2022/04/08 11:58:23;;;;;;;4.73;0.77;;;9.80;99.90;;;;;;5036297;28;20233;-46
2022/04/08 12:00:51;;;;;;;2.10;0.90;;;9.90;99.90;;;;;;5049150;28;20213;-47
2022/04/08 12:03:22;;;;;;;2.17;0.70;;;9.80;98.90;;;;;;5050845;28;20205;-44
2022/04/08 12:05:51;;;;;;;6.23;0.80;;;9.60;98.60;;;;;;5048266;28;20667;-45
2022/04/08 12:08:19;;;;;;;3.13;0.73;;;9.50;97.00;;;;;;5049580;28;20686;-45
2022/04/08 12:10:52;;;;;;;4.90;1.00;;;9.40;97.50;;;;;;5045772;28;20682;-44
2022/04/08 12:13:20;;;;;;;3.97;0.93;;;9.30;98.00;;;;;;5043737;28;20227;-43
2022/04/08 12:15:49;;;;;;;1.90;0.60;;;9.20;98.80;;;;;;5049768;28;20213;-45
2022/04/08 12:18:20;;;;;;;2.13;0.90;;;9.10;99.90;;;;;;5056205;28;20223;-44
2022/04/08 12:20:53;;;;;;;3.43;0.80;;;9.00;99.90;;;;;;5052988;28;20211;-44
2022/04/08 12:23:22;;;;;;;1.63;0.80;;;9.00;99.90;;;;;;5060791;28;20195;-43
2022/04/08 12:25:52;;;;;;;2.97;1.00;;;9.00;99.90;;;;;;5057641;28;20228;-45
2022/04/08 12:28:19;;;;;;;7.50;0.90;;;9.20;99.90;;;;;;5045358;28;20352;-45
2022/04/08 12:30:47;;;;;;;1.90;0.60;;;9.30;99.90;;;;;;5053362;28;21000;-45
2022/04/08 12:33:13;;;;;;;1.43;0.60;;;9.30;99.90;;;;;;5057865;28;20302;-44
2022/04/08 12:35:40;;;;;;;1.40;0.70;;;9.20;99.90;;;;;;5053231;28;20237;-44
2022/04/08 12:38:08;;;;;;;4.93;0.63;;;9.20;99.90;;;;;;5061226;28;20210;-47
2022/04/08 12:40:34;;;;;;;1.47;0.50;;;9.00;99.90;;;;;;5053899;28;20274;-43
2022/04/08 12:43:02;;;;;;;0.40;0.30;;;8.90;99.90;;;;;;5053731;28;20198;-46
2022/04/08 12:45:29;;;;;;;3.60;0.90;;;8.70;99.90;;;;;;5046665;28;20206;-43
2022/04/08 12:47:56;;;;;;;1.10;0.60;;;8.60;99.90;;;;;;5047421;28;20219;-43
2022/04/08 12:50:23;;;;;;;1.80;0.50;;;8.50;99.90;;;;;;5057913;28;20210;-44
2022/04/08 12:52:50;;;;;;;1.03;0.40;;;8.50;99.90;;;;;;5053251;28;20680;-47
2022/04/08 12:55:18;;;;;;;0.87;0.40;;;8.50;99.90;;;;;;5061557;28;20191;-43
2022/04/08 12:57:47;;;;;;;0.60;0.47;;;8.70;99.90;;;;;;5060872;28;20210;-42
2022/04/08 13:00:16;;;;;;;3.83;0.70;;;8.80;99.90;;;;;;5050058;28;20307;-44